Time;durP1;ratioP1;P1;durP2;ratioP2;P2;SDS_P1;SDS_P2;PMS_P1;PMS_P2;Temp;Humidity;BMP_temperature;BMP_pressure;BME280_temperature;BME280_humidity;BME280_pressure;Samples;Min_cycle;Max_cycle;Signal;HPM_P1;HPM_P2
2023/06/03 00:00:20;;;;;;;12.73;6.85;;;14.20;99.90;;;;;;5069665;28;20041;-65
2023/06/03 00:02:49;;;;;;;12.65;7.03;;;14.10;99.90;;;;;;5072112;28;20111;-65
2023/06/03 00:05:17;;;;;;;11.10;6.93;;;14.10;99.90;;;;;;5072002;28;20044;-65
2023/06/03 00:07:44;;;;;;;11.52;7.05;;;14.00;99.90;;;;;;5071879;28;20355;-65
2023/06/03 00:10:12;;;;;;;15.85;6.80;;;14.00;99.90;;;;;;5069413;28;20064;-65
2023/06/03 00:12:39;;;;;;;10.50;6.53;;;14.00;99.90;;;;;;5057035;28;20043;-65
2023/06/03 00:15:07;;;;;;;14.48;7.30;;;13.90;99.90;;;;;;5070486;28;20499;-65
2023/06/03 00:17:34;;;;;;;13.93;6.88;;;13.80;99.90;;;;;;5066995;28;20041;-65
2023/06/03 00:20:06;;;;;;;10.98;6.45;;;13.80;99.90;;;;;;5067716;28;20029;-65
2023/06/03 00:22:37;;;;;;;12.23;6.53;;;13.70;99.90;;;;;;5066915;28;20072;-65
2023/06/03 00:25:08;;;;;;;10.65;6.82;;;13.70;99.90;;;;;;5068244;28;20047;-65
2023/06/03 00:27:35;;;;;;;10.60;6.25;;;13.70;99.90;;;;;;5056314;28;20040;-65
2023/06/03 00:30:04;;;;;;;12.40;6.68;;;13.70;99.90;;;;;;5070373;28;20487;-65
2023/06/03 00:32:31;;;;;;;11.60;6.75;;;13.70;99.90;;;;;;5070105;28;20040;-65
2023/06/03 00:34:58;;;;;;;11.50;6.70;;;13.60;99.90;;;;;;5062267;28;20048;-65
2023/06/03 00:37:25;;;;;;;11.45;6.20;;;13.70;99.90;;;;;;5068660;28;20051;-64
2023/06/03 00:39:52;;;;;;;10.65;6.78;;;13.60;99.90;;;;;;5046794;28;20069;-65
2023/06/03 00:42:18;;;;;;;13.88;6.40;;;13.60;99.90;;;;;;5069028;28;20040;-64
2023/06/03 00:44:45;;;;;;;11.32;6.85;;;13.60;99.90;;;;;;5064063;28;20044;-65
2023/06/03 00:47:15;;;;;;;10.05;6.63;;;13.60;99.90;;;;;;5067055;28;20436;-65
2023/06/03 00:49:41;;;;;;;11.38;6.50;;;13.40;99.90;;;;;;5063353;28;20123;-65
2023/06/03 00:52:08;;;;;;;10.30;6.80;;;13.40;99.90;;;;;;5064330;28;20071;-65
2023/06/03 00:54:36;;;;;;;13.35;7.20;;;13.30;99.90;;;;;;5069742;28;20067;-64
2023/06/03 00:57:05;;;;;;;9.70;6.38;;;13.30;99.90;;;;;;5062476;28;20037;-65
2023/06/03 00:59:32;;;;;;;11.80;6.32;;;13.20;99.90;;;;;;5068393;28;20040;-64
2023/06/03 01:01:59;;;;;;;11.10;6.22;;;13.20;99.90;;;;;;5068012;28;20529;-64
2023/06/03 01:04:29;;;;;;;10.00;6.57;;;13.20;99.90;;;;;;5069985;28;20036;-65
2023/06/03 01:07:01;;;;;;;11.52;6.57;;;13.20;99.90;;;;;;5062320;28;20464;-63
2023/06/03 01:09:52;;;;;;;12.13;6.70;;;13.30;99.90;;;;;;5060189;28;20470;-65
2023/06/03 01:12:42;;;;;;;11.73;5.97;;;13.20;99.90;;;;;;5069860;28;20052;-64
2023/06/03 01:15:15;;;;;;;10.35;6.90;;;13.10;99.90;;;;;;5069829;28;20045;-65
2023/06/03 01:17:47;;;;;;;11.88;5.85;;;13.00;99.90;;;;;;5056850;28;20045;-65
2023/06/03 01:20:16;;;;;;;11.70;6.47;;;13.10;99.90;;;;;;5051642;28;20129;-65
2023/06/03 01:22:46;;;;;;;9.85;6.43;;;13.10;99.90;;;;;;5057219;28;20036;-65
2023/06/03 01:25:15;;;;;;;12.43;7.05;;;13.00;99.90;;;;;;5069637;28;20071;-65
2023/06/03 01:27:48;;;;;;;11.77;6.05;;;13.00;99.90;;;;;;5064901;28;20041;-65
2023/06/03 01:30:18;;;;;;;11.63;6.75;;;12.80;99.90;;;;;;5057444;28;20094;-64
2023/06/03 01:32:48;;;;;;;12.00;6.68;;;12.80;99.90;;;;;;5058619;28;20098;-65
2023/06/03 01:35:16;;;;;;;13.50;7.05;;;12.70;99.90;;;;;;5073568;28;20079;-65
2023/06/03 01:37:43;;;;;;;12.30;6.53;;;12.60;99.90;;;;;;5067451;28;20412;-65
2023/06/03 01:40:12;;;;;;;12.85;6.75;;;12.60;99.90;;;;;;5066345;28;20064;-64
2023/06/03 01:42:39;;;;;;;12.18;6.35;;;12.60;99.90;;;;;;5068635;28;20045;-65
2023/06/03 01:45:06;;;;;;;10.18;5.55;;;12.60;99.90;;;;;;5069261;28;20136;-64
2023/06/03 01:47:34;;;;;;;;;;;12.70;99.90;;;;;;5066815;28;20377;-65
2023/06/03 01:50:01;;;;;;;9.75;6.43;;;12.70;99.90;;;;;;5061107;28;19920;-64
2023/06/03 01:52:29;;;;;;;12.65;6.22;;;12.70;99.90;;;;;;5069584;28;20041;-65
2023/06/03 01:54:56;;;;;;;10.02;6.38;;;12.50;99.90;;;;;;5060912;28;20405;-65
2023/06/03 01:57:24;;;;;;;8.98;6.05;;;12.50;99.90;;;;;;5069985;28;20045;-64
2023/06/03 01:59:55;;;;;;;11.48;6.28;;;12.40;99.90;;;;;;5068181;28;20539;-65
2023/06/03 02:02:22;;;;;;;11.73;6.35;;;12.40;99.90;;;;;;5053858;28;20041;-64
2023/06/03 02:04:51;;;;;;;12.50;6.20;;;12.40;99.90;;;;;;5068845;28;20066;-64
2023/06/03 02:07:18;;;;;;;13.90;6.68;;;12.40;99.90;;;;;;5056406;28;20060;-64
2023/06/03 02:09:45;;;;;;;10.05;6.40;;;12.40;99.90;;;;;;5073221;28;20051;-65
2023/06/03 02:12:12;;;;;;;10.02;6.68;;;12.40;99.90;;;;;;5070877;28;20044;-65
2023/06/03 02:14:39;;;;;;;12.45;6.70;;;12.30;99.90;;;;;;5068532;28;20056;-64
2023/06/03 02:17:06;;;;;;;10.57;6.05;;;12.30;99.90;;;;;;5069014;28;20037;-64
2023/06/03 02:19:34;;;;;;;14.57;6.38;;;12.40;99.90;;;;;;5059459;28;20048;-64
2023/06/03 02:22:01;;;;;;;13.85;6.82;;;12.40;99.90;;;;;;5073730;28;20045;-64
2023/06/03 02:24:28;;;;;;;10.18;6.50;;;12.30;99.90;;;;;;5072476;28;20408;-64
2023/06/03 02:27:00;;;;;;;11.32;6.78;;;12.30;99.90;;;;;;5060166;28;20513;-64
2023/06/03 02:29:29;;;;;;;10.80;6.60;;;12.30;99.90;;;;;;5072619;28;20390;-65
2023/06/03 02:31:57;;;;;;;12.43;6.13;;;12.30;99.90;;;;;;5063859;28;20480;-65
2023/06/03 02:34:24;;;;;;;14.73;6.68;;;12.20;99.90;;;;;;5061654;28;20045;-64
2023/06/03 02:36:52;;;;;;;13.18;6.65;;;12.20;99.90;;;;;;5066078;28;20516;-65
2023/06/03 02:39:19;;;;;;;;;;;12.10;99.90;;;;;;5073216;28;20728;-65
2023/06/03 02:41:47;;;;;;;12.10;6.35;;;12.10;99.90;;;;;;5072239;28;19920;-64
2023/06/03 02:44:16;;;;;;;11.90;7.00;;;12.00;99.90;;;;;;5065944;28;20047;-64
2023/06/03 02:46:44;;;;;;;11.35;5.90;;;11.90;99.90;;;;;;5072171;28;20044;-63
2023/06/03 02:49:13;;;;;;;11.80;6.68;;;11.80;99.90;;;;;;5070874;28;20042;-65
2023/06/03 02:51:40;;;;;;;11.98;7.07;;;11.80;99.90;;;;;;5066603;28;20044;-65
2023/06/03 02:54:07;;;;;;;;;;;11.90;99.90;;;;;;5063998;28;20073;-64
2023/06/03 02:56:34;;;;;;;13.98;6.78;;;11.80;99.90;;;;;;5071741;28;19920;-65
2023/06/03 02:59:01;;;;;;;13.43;7.10;;;11.70;99.90;;;;;;5056016;28;20068;-65
2023/06/03 03:01:28;;;;;;;9.18;6.15;;;11.70;99.90;;;;;;5058677;28;20064;-64
2023/06/03 03:03:55;;;;;;;11.48;6.22;;;11.80;99.90;;;;;;5065219;28;20032;-64
2023/06/03 03:06:24;;;;;;;12.52;6.25;;;11.70;99.90;;;;;;5071427;28;20578;-64
2023/06/03 03:08:54;;;;;;;11.68;6.18;;;11.80;99.90;;;;;;5059176;28;20459;-64
2023/06/03 03:11:30;;;;;;;14.27;6.03;;;11.80;99.90;;;;;;5063318;28;20330;-65
2023/06/03 03:13:58;;;;;;;11.35;6.05;;;11.80;99.90;;;;;;5068078;28;20090;-64
2023/06/03 03:16:26;;;;;;;12.98;6.38;;;11.70;99.90;;;;;;5069845;28;20064;-65
2023/06/03 03:18:53;;;;;;;11.48;6.55;;;11.60;99.90;;;;;;5066354;28;20413;-65
2023/06/03 03:21:20;;;;;;;14.05;6.78;;;11.60;99.90;;;;;;5068547;28;20040;-65
2023/06/03 03:23:48;;;;;;;;;;;11.50;99.90;;;;;;5066287;28;20045;-64
2023/06/03 03:26:19;;;;;;;10.60;6.32;;;11.50;99.90;;;;;;5068643;28;19920;-64
2023/06/03 03:28:46;;;;;;;13.40;6.38;;;11.50;99.90;;;;;;5069717;28;20036;-65
2023/06/03 03:31:14;;;;;;;;;;;11.40;99.90;;;;;;5071346;28;20040;-64
2023/06/03 03:33:41;;;;;;;12.23;6.13;;;11.40;99.90;;;;;;5070010;28;19971;-64
2023/06/03 03:36:28;;;;;;;11.65;6.38;;;11.50;99.90;;;;;;5071102;28;20852;-64
2023/06/03 03:39:03;;;;;;;10.45;6.70;;;11.40;99.90;;;;;;5070888;28;20370;-65
2023/06/03 03:41:34;;;;;;;11.65;6.57;;;11.40;99.90;;;;;;5069234;28;20040;-64
2023/06/03 03:44:02;;;;;;;13.45;6.60;;;11.40;99.90;;;;;;5070929;28;20047;-65
2023/06/03 03:46:30;;;;;;;13.48;7.18;;;11.40;99.90;;;;;;5061532;28;20653;-65
2023/06/03 03:48:57;;;;;;;13.82;6.80;;;11.40;99.90;;;;;;5057467;28;20037;-64
2023/06/03 03:51:24;;;;;;;;;;;11.40;99.90;;;;;;5069539;28;20437;-64
2023/06/03 03:53:52;;;;;;;11.57;6.35;;;11.40;99.90;;;;;;5071006;28;19970;-64
2023/06/03 03:56:25;;;;;;;12.63;6.85;;;11.50;99.90;;;;;;5065982;28;20040;-64
2023/06/03 03:58:56;;;;;;;12.60;6.65;;;11.50;99.90;;;;;;5070512;28;20040;-65
2023/06/03 04:01:29;;;;;;;10.10;6.78;;;11.60;99.90;;;;;;5071548;28;20043;-64
2023/06/03 04:04:05;;;;;;;11.68;5.78;;;11.70;99.90;;;;;;5068615;28;20044;-64
2023/06/03 04:06:35;;;;;;;10.75;6.40;;;11.80;99.90;;;;;;5069979;28;20044;-64
2023/06/03 04:09:04;;;;;;;15.65;6.97;;;11.80;99.90;;;;;;5071471;28;20036;-64
2023/06/03 04:11:46;;;;;;;13.07;6.95;;;11.90;99.90;;;;;;5065566;28;20055;-64
2023/06/03 04:14:27;;;;;;;13.50;6.07;;;11.90;99.90;;;;;;5070386;28;20056;-64
2023/06/03 04:16:58;;;;;;;10.13;6.22;;;12.00;99.90;;;;;;5070139;28;20040;-65
2023/06/03 04:19:41;;;;;;;11.50;6.63;;;12.10;99.90;;;;;;5066211;28;20040;-63
2023/06/03 04:22:20;;;;;;;12.48;6.85;;;12.10;99.90;;;;;;5070102;28;20083;-64
2023/06/03 04:24:56;;;;;;;12.35;6.65;;;12.10;99.90;;;;;;5070107;28;20032;-64
2023/06/03 04:27:27;;;;;;;11.98;6.63;;;12.10;99.90;;;;;;5066949;28;20057;-64
2023/06/03 04:29:56;;;;;;;9.38;6.15;;;12.20;99.90;;;;;;5070138;28;20079;-64
2023/06/03 04:32:23;;;;;;;11.43;6.28;;;12.20;99.90;;;;;;5068690;28;20063;-65
2023/06/03 04:34:51;;;;;;;12.75;6.38;;;12.30;99.90;;;;;;5071257;28;20098;-64
2023/06/03 04:37:19;;;;;;;10.60;6.53;;;12.30;99.90;;;;;;5068500;28;20445;-65
2023/06/03 04:39:48;;;;;;;15.90;6.85;;;12.40;99.90;;;;;;5070038;28;20127;-64
2023/06/03 04:42:16;;;;;;;11.80;6.22;;;12.40;99.90;;;;;;5069734;28;20033;-64
2023/06/03 04:44:45;;;;;;;12.10;6.53;;;12.40;99.90;;;;;;5066332;28;20555;-64
2023/06/03 04:47:12;;;;;;;14.60;6.53;;;12.40;99.90;;;;;;5065136;28;20047;-64
2023/06/03 04:49:39;;;;;;;12.88;6.95;;;12.40;99.90;;;;;;5061717;28;20048;-64
2023/06/03 04:52:10;;;;;;;11.65;6.18;;;12.50;99.90;;;;;;5071806;28;20396;-64
2023/06/03 04:54:42;;;;;;;12.15;7.05;;;12.50;99.90;;;;;;5062130;28;20037;-64
2023/06/03 04:57:11;;;;;;;14.13;6.30;;;12.60;99.90;;;;;;5069930;28;20047;-64
2023/06/03 04:59:38;;;;;;;10.98;6.90;;;12.70;99.90;;;;;;5067327;28;20046;-64
2023/06/03 05:02:08;;;;;;;10.98;6.10;;;12.80;99.90;;;;;;5069032;28;20166;-64
2023/06/03 05:04:37;;;;;;;12.18;6.85;;;12.80;99.90;;;;;;5067713;28;20044;-64
2023/06/03 05:07:04;;;;;;;14.30;7.13;;;12.90;99.90;;;;;;5067821;28;20141;-65
2023/06/03 05:09:31;;;;;;;12.57;6.43;;;13.00;99.90;;;;;;5067575;28;20053;-65
2023/06/03 05:11:58;;;;;;;17.33;7.20;;;13.00;99.90;;;;;;5063661;28;20564;-64
2023/06/03 05:14:25;;;;;;;16.23;7.20;;;13.10;99.90;;;;;;5065331;28;20045;-65
2023/06/03 05:16:53;;;;;;;15.27;7.30;;;13.10;99.90;;;;;;5063469;28;20041;-65
2023/06/03 05:19:21;;;;;;;14.05;7.38;;;13.20;99.90;;;;;;5069790;28;20036;-63
2023/06/03 05:21:48;;;;;;;15.05;7.70;;;13.30;99.90;;;;;;5065495;28;20428;-65
2023/06/03 05:24:15;;;;;;;;;;;13.40;99.90;;;;;;5057411;28;20059;-65
2023/06/03 05:26:42;;;;;;;14.10;7.63;;;13.60;99.90;;;;;;5061849;28;19921;-64
2023/06/03 05:29:09;;;;;;;16.73;8.15;;;13.60;99.90;;;;;;5061328;28;20048;-65
2023/06/03 05:31:36;;;;;;;15.60;8.95;;;13.70;99.90;;;;;;5062866;28;20462;-64
2023/06/03 05:34:03;;;;;;;14.15;7.78;;;13.60;99.90;;;;;;5067411;28;20598;-65
2023/06/03 05:36:30;;;;;;;14.70;7.75;;;13.60;99.90;;;;;;5054286;28;20041;-65
2023/06/03 05:39:00;;;;;;;11.27;7.90;;;13.60;99.90;;;;;;5048293;28;20040;-64
2023/06/03 05:41:29;;;;;;;15.75;8.82;;;13.60;99.90;;;;;;5046884;28;20450;-63
2023/06/03 05:43:56;;;;;;;13.82;8.10;;;13.70;99.90;;;;;;5069706;28;20467;-64
2023/06/03 05:46:23;;;;;;;15.93;7.90;;;13.80;99.90;;;;;;5055425;28;20454;-65
2023/06/03 05:48:51;;;;;;;;;;;13.90;99.90;;;;;;5070000;28;20041;-64
2023/06/03 05:51:18;;;;;;;18.88;9.43;;;14.00;99.90;;;;;;5068542;28;19970;-65
2023/06/03 05:53:45;;;;;;;14.75;8.27;;;14.10;99.90;;;;;;5053752;28;20052;-65
2023/06/03 05:56:17;;;;;;;15.85;8.77;;;14.20;99.90;;;;;;5060208;28;20060;-65
2023/06/03 05:58:44;;;;;;;15.73;8.77;;;14.20;99.90;;;;;;5057882;28;20436;-64
2023/06/03 06:01:11;;;;;;;17.77;9.07;;;14.30;99.90;;;;;;5056813;28;20041;-65
2023/06/03 06:03:38;;;;;;;14.57;8.70;;;14.40;99.90;;;;;;5067787;28;20045;-65
2023/06/03 06:06:05;;;;;;;17.02;8.93;;;14.40;99.90;;;;;;5069712;28;20120;-64
2023/06/03 06:08:32;;;;;;;15.80;8.13;;;14.50;99.90;;;;;;5058685;28;20045;-65
2023/06/03 06:11:00;;;;;;;16.38;8.57;;;14.60;99.90;;;;;;5062373;28;20048;-65
2023/06/03 06:13:27;;;;;;;17.55;9.32;;;14.60;99.90;;;;;;5069866;28;20396;-65
2023/06/03 06:16:01;;;;;;;19.77;9.52;;;14.70;99.90;;;;;;5046252;28;20040;-65
2023/06/03 06:18:29;;;;;;;24.58;8.95;;;14.80;99.90;;;;;;5071627;28;20044;-65
2023/06/03 06:20:57;;;;;;;15.05;9.43;;;14.90;99.90;;;;;;5070154;28;20119;-65
2023/06/03 06:23:25;;;;;;;19.88;8.75;;;14.90;99.90;;;;;;5072493;28;20515;-65
2023/06/03 06:25:54;;;;;;;15.32;8.38;;;15.00;99.90;;;;;;5072657;28;20040;-65
2023/06/03 06:28:29;;;;;;;17.98;8.63;;;15.10;99.90;;;;;;5071494;28;20045;-65
2023/06/03 06:31:04;;;;;;;15.32;9.10;;;15.20;99.90;;;;;;5067223;28;20101;-65
2023/06/03 06:33:36;;;;;;;17.73;9.20;;;15.30;99.90;;;;;;5063000;28;20074;-65
2023/06/03 06:36:20;;;;;;;17.00;9.45;;;15.40;99.90;;;;;;5061917;28;20040;-65
2023/06/03 06:38:47;;;;;;;19.45;8.85;;;15.50;99.90;;;;;;5071647;28;20115;-65
2023/06/03 06:41:15;;;;;;;15.10;9.32;;;15.60;99.90;;;;;;5064472;28;20069;-65
2023/06/03 06:43:42;;;;;;;16.38;9.23;;;15.70;99.90;;;;;;5062627;28;20400;-65
2023/06/03 06:46:10;;;;;;;19.10;10.07;;;15.80;99.90;;;;;;5059236;28;20082;-65
2023/06/03 06:48:38;;;;;;;20.50;9.10;;;15.90;99.90;;;;;;5071712;28;20045;-65
2023/06/03 06:51:06;;;;;;;16.48;9.30;;;16.10;99.90;;;;;;5066047;28;20033;-65
2023/06/03 06:53:35;;;;;;;16.08;9.05;;;16.10;99.90;;;;;;5062847;28;20052;-65
2023/06/03 06:56:07;;;;;;;18.52;9.35;;;16.20;99.90;;;;;;5072551;28;20076;-65
2023/06/03 06:58:41;;;;;;;18.55;9.10;;;16.30;99.90;;;;;;5063722;28;20048;-65
2023/06/03 07:01:10;;;;;;;25.23;10.55;;;16.20;99.90;;;;;;5064811;28;20636;-65
2023/06/03 07:03:42;;;;;;;15.50;9.10;;;16.10;99.90;;;;;;5067548;28;20048;-65
2023/06/03 07:06:10;;;;;;;20.70;9.95;;;16.10;99.90;;;;;;5065532;28;20075;-65
2023/06/03 07:08:38;;;;;;;17.17;8.90;;;16.20;99.90;;;;;;5061833;28;20049;-65
2023/06/03 07:11:06;;;;;;;18.40;9.90;;;16.30;99.90;;;;;;5064657;28;20550;-65
2023/06/03 07:13:50;;;;;;;16.45;10.15;;;16.40;99.90;;;;;;5063803;28;20051;-65
2023/06/03 07:16:18;;;;;;;16.13;9.27;;;16.50;99.90;;;;;;5063110;28;20417;-65
2023/06/03 07:18:45;;;;;;;;;;;16.60;99.90;;;;;;5069214;28;20041;-66
2023/06/03 07:21:15;;;;;;;19.40;10.18;;;16.60;99.90;;;;;;5061519;28;19960;-65
2023/06/03 07:23:47;;;;;;;18.55;9.57;;;16.70;99.90;;;;;;5071728;28;20048;-65
2023/06/03 07:26:15;;;;;;;18.15;9.85;;;16.70;99.90;;;;;;5065617;28;20045;-65
2023/06/03 07:28:41;;;;;;;;;;;16.80;99.90;;;;;;5058456;28;20064;-66
2023/06/03 07:31:11;;;;;;;16.75;10.23;;;17.00;99.90;;;;;;5065700;28;19955;-66
2023/06/03 07:33:44;;;;;;;21.80;9.95;;;17.00;99.90;;;;;;5067929;28;20048;-67
2023/06/03 07:36:13;;;;;;;16.48;9.50;;;17.10;99.90;;;;;;5070516;28;20078;-64
2023/06/03 07:38:57;;;;;;;16.83;9.63;;;17.20;99.90;;;;;;5069859;28;20040;-64
2023/06/03 07:41:50;;;;;;;18.75;9.32;;;17.30;99.90;;;;;;5066655;28;20578;-64
2023/06/03 07:44:42;;;;;;;16.77;9.60;;;17.40;99.90;;;;;;5068352;28;20493;-64
2023/06/03 07:47:13;;;;;;;21.95;9.95;;;17.50;99.90;;;;;;5053411;28;20038;-64
2023/06/03 07:49:44;;;;;;;19.83;9.95;;;17.60;99.90;;;;;;5062877;28;20044;-64
2023/06/03 07:52:18;;;;;;;18.08;9.88;;;17.70;99.90;;;;;;5072376;28;20040;-64
2023/06/03 07:54:46;;;;;;;16.88;10.07;;;17.80;99.90;;;;;;5072373;28;20404;-64
2023/06/03 07:57:13;;;;;;;19.40;9.82;;;17.90;99.90;;;;;;5067355;28;20036;-64
2023/06/03 07:59:52;;;;;;;15.90;9.27;;;18.00;99.90;;;;;;5064862;28;20382;-64
2023/06/03 08:02:20;;;;;;;19.15;10.98;;;18.00;99.90;;;;;;5067717;28;20045;-64
2023/06/03 08:04:47;;;;;;;17.67;10.30;;;18.00;99.90;;;;;;5071312;28;20098;-64
2023/06/03 08:07:15;;;;;;;18.90;10.93;;;18.10;99.90;;;;;;5063512;28;20051;-64
2023/06/03 08:09:42;;;;;;;19.20;9.80;;;18.00;99.90;;;;;;5065338;28;20413;-64
2023/06/03 08:12:09;;;;;;;23.33;10.43;;;18.20;99.90;;;;;;5072017;28;20041;-64
2023/06/03 08:14:38;;;;;;;18.13;10.15;;;18.20;99.90;;;;;;5052853;28;20056;-63
2023/06/03 08:17:13;;;;;;;18.50;10.70;;;18.30;99.90;;;;;;5065653;28;20076;-63
2023/06/03 08:19:44;;;;;;;20.60;10.32;;;18.30;99.90;;;;;;5069918;28;20033;-63
2023/06/03 08:22:35;;;;;;;20.77;9.98;;;18.40;99.90;;;;;;5066771;28;20162;-63
2023/06/03 08:25:02;;;;;;;16.63;9.63;;;18.40;99.90;;;;;;5062849;28;20036;-63
2023/06/03 08:27:32;;;;;;;21.23;10.20;;;18.40;99.90;;;;;;5063294;28;20049;-64
2023/06/03 08:29:59;;;;;;;18.55;9.82;;;18.50;99.90;;;;;;5065424;28;20504;-64
2023/06/03 08:32:26;;;;;;;18.40;9.63;;;18.60;99.90;;;;;;5064269;28;20051;-64
2023/06/03 08:34:53;;;;;;;18.92;9.88;;;18.60;99.90;;;;;;5071740;28;20094;-63
2023/06/03 08:37:20;;;;;;;16.25;8.98;;;18.70;99.90;;;;;;5071646;28;20044;-64
2023/06/03 08:39:47;;;;;;;18.48;9.60;;;18.80;99.90;;;;;;5062896;28;20041;-64
2023/06/03 08:42:18;;;;;;;;;;;18.80;99.90;;;;;;5071946;28;20044;-62
2023/06/03 08:44:57;;;;;;;18.10;9.93;;;18.80;99.90;;;;;;5063322;28;20312;-64
2023/06/03 08:47:32;;;;;;;17.02;8.82;;;18.90;99.90;;;;;;5067094;28;20051;-62
2023/06/03 08:50:13;;;;;;;18.52;9.23;;;19.10;99.90;;;;;;5067661;28;20047;-62
2023/06/03 08:52:42;;;;;;;15.50;8.50;;;19.10;99.90;;;;;;5069286;28;20055;-63
2023/06/03 08:55:14;;;;;;;17.17;9.48;;;19.20;99.90;;;;;;5068912;28;20686;-63
2023/06/03 08:57:57;;;;;;;13.25;8.90;;;19.40;99.90;;;;;;5067049;28;20032;-62
2023/06/03 09:00:26;;;;;;;16.48;8.93;;;19.40;99.90;;;;;;5070282;28;20083;-63
2023/06/03 09:02:53;;;;;;;17.10;8.85;;;19.60;99.90;;;;;;5070379;28;20115;-64
2023/06/03 09:05:21;;;;;;;14.38;9.02;;;19.70;99.90;;;;;;5064624;28;20132;-63
2023/06/03 09:07:50;;;;;;;19.00;9.00;;;19.70;99.90;;;;;;5070020;28;20032;-63
2023/06/03 09:10:20;;;;;;;19.67;8.73;;;19.80;99.90;;;;;;5064853;28;20382;-63
2023/06/03 09:12:48;;;;;;;19.02;9.70;;;19.80;99.90;;;;;;5060458;28;20037;-63
2023/06/03 09:15:15;;;;;;;13.82;9.27;;;19.90;99.90;;;;;;5066318;28;20043;-63
2023/06/03 09:17:43;;;;;;;19.38;9.45;;;20.00;99.90;;;;;;5062420;28;20049;-63
2023/06/03 09:20:11;;;;;;;14.40;9.10;;;20.10;99.90;;;;;;5064744;28;20040;-63
2023/06/03 09:22:41;;;;;;;19.85;10.02;;;19.90;99.90;;;;;;5070478;28;20514;-63
2023/06/03 09:25:08;;;;;;;19.60;8.95;;;20.10;99.90;;;;;;5071197;28;20599;-63
2023/06/03 09:27:35;;;;;;;18.85;8.77;;;20.10;99.90;;;;;;5062636;28;20049;-63
2023/06/03 09:30:04;;;;;;;19.23;9.13;;;20.10;99.90;;;;;;5064447;28;20051;-63
2023/06/03 09:32:31;;;;;;;18.90;9.48;;;20.10;99.90;;;;;;5061247;28;20147;-63
2023/06/03 09:34:59;;;;;;;20.80;9.07;;;20.00;99.90;;;;;;5061941;28;20115;-64
2023/06/03 09:37:26;;;;;;;13.50;9.05;;;20.10;99.90;;;;;;5070823;28;20045;-63
2023/06/03 09:39:59;;;;;;;16.27;9.40;;;20.00;99.90;;;;;;5070721;28;20047;-64
2023/06/03 09:42:43;;;;;;;15.85;9.18;;;20.10;99.90;;;;;;5063053;28;20055;-63
2023/06/03 09:45:30;;;;;;;14.10;8.50;;;20.20;99.90;;;;;;5058229;28;20044;-63
2023/06/03 09:48:01;;;;;;;12.98;8.25;;;20.30;99.90;;;;;;5062770;28;20037;-63
2023/06/03 09:50:32;;;;;;;15.43;9.00;;;20.40;99.90;;;;;;5067524;28;20037;-63
2023/06/03 09:53:00;;;;;;;13.68;9.50;;;20.40;99.90;;;;;;5070063;28;20040;-63
2023/06/03 09:55:32;;;;;;;18.77;9.52;;;20.50;99.90;;;;;;5073214;28;20082;-62
2023/06/03 09:58:22;;;;;;;14.93;8.07;;;20.40;99.90;;;;;;5070891;28;20049;-63
2023/06/03 10:00:50;;;;;;;15.55;7.78;;;20.30;99.90;;;;;;5072945;28;20123;-63
2023/06/03 10:03:22;;;;;;;14.68;8.88;;;20.40;99.90;;;;;;5071933;28;20094;-63
2023/06/03 10:05:49;;;;;;;14.50;8.90;;;20.40;99.90;;;;;;5072135;28;20062;-63
2023/06/03 10:08:32;;;;;;;17.95;8.80;;;20.30;99.90;;;;;;5071633;28;20040;-63
2023/06/03 10:11:01;;;;;;;16.05;8.43;;;20.40;99.90;;;;;;5072001;28;20063;-63
2023/06/03 10:13:28;;;;;;;14.63;8.57;;;20.50;99.90;;;;;;5072499;28;20123;-62
2023/06/03 10:15:58;;;;;;;12.10;8.27;;;20.60;99.90;;;;;;5072022;28;20036;-63
2023/06/03 10:18:39;;;;;;;14.73;7.72;;;20.60;99.90;;;;;;5073248;28;20056;-63
2023/06/03 10:21:12;;;;;;;13.95;7.85;;;20.80;99.90;;;;;;5070057;28;20037;-63
2023/06/03 10:23:41;;;;;;;14.57;7.70;;;20.70;99.90;;;;;;5073170;28;20033;-62
2023/06/03 10:26:10;;;;;;;16.50;7.53;;;20.70;99.90;;;;;;5071010;28;20048;-63
2023/06/03 10:28:37;;;;;;;12.43;7.22;;;20.80;99.90;;;;;;5072266;28;20048;-63
2023/06/03 10:31:05;;;;;;;13.65;7.28;;;20.80;99.90;;;;;;5073079;28;20072;-63
2023/06/03 10:33:35;;;;;;;15.27;7.82;;;20.80;99.90;;;;;;5073413;28;20146;-62
2023/06/03 10:36:03;;;;;;;13.48;7.00;;;20.70;99.90;;;;;;5067480;28;20141;-63
2023/06/03 10:38:31;;;;;;;16.60;7.57;;;20.70;99.90;;;;;;5073448;28;20044;-63
2023/06/03 10:41:00;;;;;;;17.88;7.00;;;20.70;99.90;;;;;;5072196;28;20048;-62
2023/06/03 10:43:30;;;;;;;17.45;7.43;;;20.80;99.90;;;;;;5071790;28;20045;-61
2023/06/03 10:45:58;;;;;;;12.35;6.82;;;20.90;99.90;;;;;;5070879;28;20048;-62
2023/06/03 10:48:26;;;;;;;12.68;7.10;;;20.90;99.90;;;;;;5072209;28;20048;-62
2023/06/03 10:51:32;;;;;;;14.68;7.43;;;20.80;99.90;;;;;;5071242;28;20060;-63
2023/06/03 10:54:25;;;;;;;13.82;7.25;;;20.70;99.90;;;;;;5064184;28;20072;-63
2023/06/03 10:57:05;;;;;;;10.70;6.57;;;20.80;99.90;;;;;;5069586;28;20037;-62
2023/06/03 10:59:43;;;;;;;14.90;6.78;;;20.90;99.90;;;;;;5070050;28;20040;-63
2023/06/03 11:02:10;;;;;;;;;;;20.90;99.90;;;;;;5070719;28;20063;-63
2023/06/03 11:04:38;;;;;;;13.43;6.82;;;21.10;99.90;;;;;;5072318;28;20285;-63
2023/06/03 11:07:26;;;;;;;11.20;6.43;;;21.20;99.90;;;;;;5069997;28;20032;-63
2023/06/03 11:09:54;;;;;;;10.23;6.03;;;21.30;99.90;;;;;;5058434;28;20067;-63
2023/06/03 11:12:21;;;;;;;13.18;6.95;;;21.30;99.90;;;;;;5070684;28;20060;-63
2023/06/03 11:14:50;;;;;;;9.88;6.45;;;21.40;99.90;;;;;;5069755;28;20040;-63
2023/06/03 11:17:18;;;;;;;12.80;7.35;;;21.40;99.90;;;;;;5071812;28;20049;-64
2023/06/03 11:19:45;;;;;;;14.73;6.13;;;21.50;99.90;;;;;;5069749;28;20072;-63
2023/06/03 11:22:35;;;;;;;13.75;6.93;;;21.60;99.90;;;;;;5066429;28;20064;-63
2023/06/03 11:25:02;;;;;;;8.57;5.90;;;21.40;99.90;;;;;;5065017;28;20055;-63
2023/06/03 11:27:30;;;;;;;10.43;7.10;;;21.50;99.90;;;;;;5062506;28;20151;-63
2023/06/03 11:29:59;;;;;;;9.88;6.65;;;21.40;99.90;;;;;;5071651;28;20051;-63
2023/06/03 11:32:29;;;;;;;9.02;6.40;;;21.40;99.90;;;;;;5069193;28;20547;-62
2023/06/03 11:35:01;;;;;;;11.57;6.63;;;21.40;99.90;;;;;;5070405;28;20090;-62
2023/06/03 11:37:41;;;;;;;10.70;6.45;;;21.40;99.90;;;;;;5069076;28;20452;-64
2023/06/03 11:40:14;;;;;;;11.23;6.53;;;21.50;99.90;;;;;;5070412;28;20048;-65
2023/06/03 11:42:50;;;;;;;13.18;6.78;;;21.60;99.90;;;;;;5071627;28;20399;-63
2023/06/03 11:45:20;;;;;;;9.85;6.63;;;21.80;99.90;;;;;;5060742;28;20449;-62
2023/06/03 11:47:48;;;;;;;14.80;6.95;;;21.90;99.90;;;;;;5069586;28;20048;-63
2023/06/03 11:50:17;;;;;;;14.23;6.75;;;21.90;99.90;;;;;;5069225;28;20075;-64
2023/06/03 11:52:44;;;;;;;9.45;6.25;;;21.90;99.90;;;;;;5069485;28;20044;-64
2023/06/03 11:55:21;;;;;;;;;;;21.90;99.90;;;;;;5071837;28;20380;-63
2023/06/03 11:57:48;;;;;;;12.00;7.60;;;21.80;99.90;;;;;;5071787;28;20324;-63
2023/06/03 12:00:17;;;;;;;12.48;6.47;;;21.90;99.90;;;;;;5065179;28;20036;-64
2023/06/03 12:02:48;;;;;;;13.02;6.60;;;21.90;99.90;;;;;;5071262;28;20044;-63
2023/06/03 12:05:16;;;;;;;11.77;6.60;;;22.00;99.90;;;;;;5069922;28;20040;-63
2023/06/03 12:07:59;;;;;;;11.73;6.00;;;21.90;99.90;;;;;;5065371;28;20033;-64
2023/06/03 12:10:39;;;;;;;11.63;6.20;;;22.00;99.90;;;;;;5071466;28;20082;-62
2023/06/03 12:13:06;;;;;;;15.35;6.25;;;22.00;99.90;;;;;;5070548;28;20086;-63
2023/06/03 12:15:32;;;;;;;10.40;6.30;;;22.00;99.90;;;;;;5071072;28;20042;-63
2023/06/03 12:18:03;;;;;;;12.65;6.57;;;22.10;99.90;;;;;;5069475;28;20511;-63
2023/06/03 12:20:30;;;;;;;12.48;6.55;;;22.20;99.90;;;;;;5071404;28;20040;-64
2023/06/03 12:23:04;;;;;;;12.20;6.50;;;22.20;99.90;;;;;;5052784;28;20093;-63
2023/06/03 12:25:35;;;;;;;11.23;6.22;;;22.20;99.90;;;;;;5069057;28;20036;-63
2023/06/03 12:28:25;;;;;;;8.23;5.55;;;22.10;99.90;;;;;;5071243;28;20123;-63
2023/06/03 12:30:52;;;;;;;10.85;6.20;;;22.10;99.90;;;;;;5071263;28;20079;-63
2023/06/03 12:33:19;;;;;;;8.57;6.15;;;22.10;99.90;;;;;;5068735;28;20082;-63
2023/06/03 12:35:56;;;;;;;11.85;6.68;;;22.30;99.90;;;;;;5071392;28;20054;-64
2023/06/03 12:38:26;;;;;;;13.67;6.73;;;22.30;99.90;;;;;;5065712;28;20086;-61
2023/06/03 12:41:08;;;;;;;12.32;5.80;;;22.20;99.90;;;;;;5070701;28;20043;-63
2023/06/03 12:43:35;;;;;;;16.55;5.88;;;22.30;99.90;;;;;;5071051;28;20040;-63
2023/06/03 12:46:18;;;;;;;10.65;6.07;;;22.50;99.90;;;;;;5066648;28;20040;-63
2023/06/03 12:48:45;;;;;;;9.20;6.15;;;22.50;99.90;;;;;;5067915;28;20086;-62
2023/06/03 12:51:31;;;;;;;8.57;5.18;;;22.50;99.90;;;;;;5070836;28;20044;-64
2023/06/03 12:53:57;;;;;;;16.73;5.85;;;22.50;99.90;;;;;;5069921;28;20520;-62
2023/06/03 12:56:27;;;;;;;13.98;6.20;;;22.40;99.90;;;;;;5064464;28;20049;-62